createdAt,value
2024-02-16T00:01:31.902Z,8.60
2024-02-16T00:06:36.372Z,8.60
2024-02-16T00:11:39.457Z,8.40
2024-02-16T00:16:42.365Z,8.40
2024-02-16T00:21:46.577Z,8.50
2024-02-16T00:26:49.623Z,8.40
2024-02-16T00:31:52.668Z,8.40
2024-02-16T00:36:56.912Z,8.30
2024-02-16T00:42:01.015Z,8.30
2024-02-16T00:47:03.957Z,8.30
2024-02-16T00:52:08.679Z,8.20
2024-02-16T00:57:11.718Z,8.20
2024-02-16T01:02:15.074Z,8.20
2024-02-16T01:07:19.604Z,8.20
2024-02-16T01:12:22.510Z,8.10
2024-02-16T01:17:25.435Z,8.20
2024-02-16T01:22:30.392Z,8.20
2024-02-16T01:27:33.745Z,8.20
2024-02-16T01:32:36.915Z,8.20
2024-02-16T01:37:41.640Z,8.10
2024-02-16T01:42:44.637Z,8.20
2024-02-16T01:47:49.666Z,8.20
2024-02-16T01:52:54.541Z,8.00
2024-02-16T01:58:00.090Z,8.10
2024-02-16T02:03:03.230Z,8.10
2024-02-16T02:08:13.746Z,8.10
2024-02-16T02:13:16.850Z,8.20
2024-02-16T02:18:20.363Z,8.10
2024-02-16T02:23:24.712Z,8.20
2024-02-16T02:28:27.581Z,8.10
2024-02-16T02:33:31.055Z,7.90
2024-02-16T02:38:36.053Z,8.10
2024-02-16T02:43:38.954Z,8.20
2024-02-16T02:48:41.960Z,8.30
2024-02-16T02:53:46.384Z,8.10
2024-02-16T02:58:49.490Z,8.00
2024-02-16T03:03:52.571Z,8.10
2024-02-16T03:08:57.768Z,7.90
2024-02-16T03:14:00.692Z,7.80
2024-02-16T03:19:03.796Z,7.90
2024-02-16T03:24:08.645Z,7.90
2024-02-16T03:29:11.679Z,7.90
2024-02-16T03:34:14.637Z,7.90
2024-02-16T03:39:21.299Z,7.90
2024-02-16T03:44:24.302Z,7.90
2024-02-16T03:49:29.148Z,8.00
2024-02-16T03:54:33.681Z,7.90
2024-02-16T03:59:36.684Z,7.90
2024-02-16T04:04:39.640Z,7.90
2024-02-16T04:09:43.918Z,7.90
2024-02-16T04:14:47.052Z,7.90
2024-02-16T04:19:50.204Z,7.70
2024-02-16T04:24:54.555Z,7.90
2024-02-16T04:29:58.018Z,7.90
2024-02-16T04:35:01.160Z,7.90
2024-02-16T04:40:06.966Z,7.90
2024-02-16T04:45:13.079Z,7.90
2024-02-16T04:50:16.316Z,7.60
2024-02-16T04:55:20.559Z,7.90
2024-02-16T05:00:23.635Z,7.90
2024-02-16T05:05:26.766Z,7.90
2024-02-16T05:10:30.980Z,8.00
2024-02-16T05:15:34.164Z,8.10
2024-02-16T05:20:37.168Z,8.10
2024-02-16T05:25:42.412Z,8.10
2024-02-16T05:30:45.450Z,8.10
2024-02-16T05:35:52.641Z,8.20
2024-02-16T05:40:57.983Z,8.10
2024-02-16T05:46:01.031Z,8.10
2024-02-16T05:51:04.094Z,8.20
2024-02-16T05:56:11.376Z,8.20
2024-02-16T06:01:15.693Z,8.20
2024-02-16T06:06:18.724Z,8.10
2024-02-16T06:11:23.026Z,8.20
2024-02-16T06:16:25.939Z,8.10
2024-02-16T06:21:29.034Z,8.20
2024-02-16T06:26:33.287Z,8.20
2024-02-16T06:31:36.155Z,8.20
2024-02-16T06:36:41.371Z,8.10
2024-02-16T06:41:47.678Z,7.90
2024-02-16T06:46:50.705Z,8.10
2024-02-16T06:51:53.829Z,8.20
2024-02-16T06:56:58.188Z,8.30
2024-02-16T07:02:01.092Z,8.40
2024-02-16T07:07:05.238Z,8.40
2024-02-16T07:12:10.581Z,8.50
2024-02-16T07:17:13.521Z,8.60
2024-02-16T07:22:16.759Z,8.70
2024-02-16T07:27:21.009Z,8.90
2024-02-16T07:32:23.932Z,8.90
2024-02-16T07:37:26.916Z,9.00
2024-02-16T07:42:31.251Z,9.10
2024-02-16T07:47:34.492Z,9.20
2024-02-16T07:52:37.857Z,9.10
2024-02-16T07:57:42.192Z,9.30
2024-02-16T08:02:45.327Z,9.40
2024-02-16T08:07:49.343Z,9.50
2024-02-16T08:12:53.658Z,9.60
2024-02-16T08:17:56.708Z,9.70
2024-02-16T08:23:00.534Z,9.90
2024-02-16T08:28:06.026Z,9.90
2024-02-16T08:33:09.215Z,10.20
2024-02-16T08:38:12.543Z,10.20
2024-02-16T08:43:16.975Z,10.30
2024-02-16T08:48:20.109Z,10.40
2024-02-16T08:53:23.192Z,10.70
2024-02-16T08:58:27.443Z,11.00
2024-02-16T09:03:30.502Z,11.20
2024-02-16T09:08:34.569Z,11.30
2024-02-16T09:13:41.881Z,11.60
2024-02-16T09:18:45.498Z,11.80
2024-02-16T09:23:48.440Z,12.00
2024-02-16T09:28:52.630Z,12.20
2024-02-16T09:33:55.696Z,12.20
2024-02-16T09:38:59.370Z,12.30
2024-02-16T09:44:04.211Z,12.70
2024-02-16T09:49:07.414Z,13.30
2024-02-16T09:54:11.687Z,13.60
2024-02-16T09:59:15.944Z,13.90
2024-02-16T10:04:18.819Z,14.30
2024-02-16T10:09:25.915Z,14.50
2024-02-16T10:14:33.127Z,14.80
2024-02-16T10:19:41.722Z,15.20
2024-02-16T10:24:46.018Z,15.60
2024-02-16T10:29:51.895Z,16.00
2024-02-16T10:34:57.443Z,16.20
2024-02-16T10:40:02.292Z,16.30
2024-02-16T10:45:08.452Z,16.40
2024-02-16T10:50:12.066Z,16.60
2024-02-16T10:55:16.936Z,16.90
2024-02-16T11:00:22.375Z,17.30
2024-02-16T11:05:35.896Z,17.50
2024-02-16T11:10:38.825Z,17.70
2024-02-16T11:15:43.457Z,17.90
2024-02-16T11:20:46.698Z,18.30
2024-02-16T11:25:52.989Z,18.40
2024-02-16T11:31:00.649Z,18.70
2024-02-16T11:36:09.498Z,18.90
2024-02-16T11:41:12.619Z,19.40
2024-02-16T11:46:18.677Z,19.50
2024-02-16T11:51:21.549Z,19.80
2024-02-16T11:56:25.696Z,20.20
2024-02-16T12:01:30.624Z,20.40
2024-02-16T12:06:33.733Z,20.40
2024-02-16T12:11:38.956Z,20.30
2024-02-16T12:16:43.258Z,20.10
2024-02-16T12:21:46.271Z,20.10
2024-02-16T12:26:49.188Z,19.90
2024-02-16T12:31:53.530Z,19.80
2024-02-16T12:36:56.424Z,19.60
2024-02-16T12:41:59.590Z,19.50
2024-02-16T12:47:04.021Z,19.90
2024-02-16T12:52:07.408Z,20.00
2024-02-16T12:57:15.529Z,20.40
2024-02-16T13:02:19.903Z,20.90
2024-02-16T13:07:22.987Z,21.00
2024-02-16T13:12:25.955Z,20.90
2024-02-16T13:17:30.250Z,21.00
2024-02-16T13:22:33.235Z,21.40
2024-02-16T13:27:36.371Z,21.80
2024-02-16T13:32:41.800Z,21.70
2024-02-16T13:37:44.782Z,21.70
2024-02-16T13:42:47.868Z,21.50
2024-02-16T13:47:52.080Z,21.30
2024-02-16T13:52:56.440Z,20.90
2024-02-16T13:57:59.373Z,20.80
2024-02-16T14:03:04.061Z,20.40
2024-02-16T14:08:09.442Z,20.10
2024-02-16T14:13:12.646Z,19.90
2024-02-16T14:18:26.467Z,19.90
2024-02-16T14:23:33.098Z,20.40
2024-02-16T14:28:35.994Z,20.30
2024-02-16T14:33:40.620Z,21.60
2024-02-16T14:38:43.851Z,22.00
2024-02-16T14:43:47.738Z,21.50
2024-02-16T14:48:53.124Z,21.60
2024-02-16T14:53:56.140Z,22.30
2024-02-16T14:58:59.086Z,22.60
2024-02-16T15:04:03.367Z,22.40
2024-02-16T15:09:06.630Z,22.50
2024-02-16T15:14:09.630Z,22.60
2024-02-16T15:19:13.971Z,22.40
2024-02-16T15:24:17.098Z,21.20
2024-02-16T15:29:20.016Z,20.90
2024-02-16T15:34:25.176Z,21.20
2024-02-16T15:39:28.155Z,20.50
2024-02-16T15:44:31.117Z,19.50
2024-02-16T15:49:35.352Z,19.00
2024-02-16T15:54:38.273Z,18.60
2024-02-16T15:59:41.253Z,18.20
2024-02-16T16:04:45.498Z,18.00
2024-02-16T16:09:48.415Z,17.90
2024-02-16T16:14:52.113Z,17.70
2024-02-16T16:19:58.377Z,17.70
2024-02-16T16:25:02.618Z,17.50
2024-02-16T16:30:06.556Z,17.40
2024-02-16T16:35:11.702Z,17.20
2024-02-16T16:40:15.169Z,17.10
2024-02-16T16:45:18.219Z,17.00
2024-02-16T16:50:22.859Z,16.60
2024-02-16T16:55:25.797Z,16.40
2024-02-16T17:00:29.156Z,16.40
2024-02-16T17:05:33.449Z,16.40
2024-02-16T17:10:36.553Z,16.30
2024-02-16T17:15:39.457Z,16.30
2024-02-16T17:20:43.659Z,16.30
2024-02-16T17:25:46.514Z,16.20
2024-02-16T17:30:49.464Z,16.00
2024-02-16T17:35:53.702Z,15.90
2024-02-16T17:40:56.585Z,15.90
2024-02-16T17:45:59.448Z,15.90
2024-02-16T17:51:03.718Z,15.90
2024-02-16T17:56:08.951Z,15.90
2024-02-16T18:01:12.949Z,15.70
2024-02-16T18:06:17.281Z,15.70
2024-02-16T18:11:21.518Z,15.50
2024-02-16T18:16:27.916Z,15.40
2024-02-16T18:21:32.307Z,15.50
2024-02-16T18:26:36.068Z,15.40
2024-02-16T18:31:38.985Z,15.40
2024-02-16T18:36:43.292Z,15.40
2024-02-16T18:41:46.359Z,15.20
2024-02-16T18:46:49.244Z,15.10
2024-02-16T18:51:53.760Z,15.20
2024-02-16T18:56:56.936Z,15.00
2024-02-16T19:02:02.623Z,14.90
2024-02-16T19:07:07.690Z,14.90
2024-02-16T19:12:11.709Z,15.00
2024-02-16T19:17:15.189Z,15.00
2024-02-16T19:22:19.471Z,14.90
2024-02-16T19:27:22.381Z,14.90
2024-02-16T19:32:25.317Z,14.90
2024-02-16T19:37:29.831Z,14.80
2024-02-16T19:42:32.756Z,14.80
2024-02-16T19:47:35.972Z,14.80
2024-02-16T19:52:40.314Z,14.60
2024-02-16T19:57:46.161Z,14.50
2024-02-16T20:02:52.990Z,14.40
2024-02-16T20:07:57.312Z,14.50
2024-02-16T20:13:00.251Z,14.50
2024-02-16T20:18:04.501Z,14.70
2024-02-16T20:23:08.834Z,14.70
2024-02-16T20:28:11.716Z,14.80
2024-02-16T20:33:16.505Z,14.90
2024-02-16T20:38:20.739Z,14.90
2024-02-16T20:43:23.612Z,14.80
2024-02-16T20:48:27.008Z,14.80
2024-02-16T20:53:31.345Z,14.90
2024-02-16T20:58:34.235Z,14.70
2024-02-16T21:03:38.002Z,14.90
2024-02-16T21:08:46.760Z,14.60
2024-02-16T21:13:50.153Z,14.70
2024-02-16T21:18:53.217Z,14.70
2024-02-16T21:23:57.522Z,14.70
2024-02-16T21:29:03.979Z,14.50
2024-02-16T21:34:07.550Z,14.70
2024-02-16T21:39:12.146Z,14.70
2024-02-16T21:44:15.198Z,14.60
2024-02-16T21:49:18.380Z,14.60
2024-02-16T21:54:22.730Z,14.50
2024-02-16T21:59:25.993Z,14.50
2024-02-16T22:04:28.867Z,14.40
2024-02-16T22:09:34.016Z,14.40
2024-02-16T22:14:36.969Z,14.40
2024-02-16T22:19:39.966Z,14.40
2024-02-16T22:24:44.270Z,14.40
2024-02-16T22:29:47.297Z,14.30
2024-02-16T22:34:50.287Z,14.40
2024-02-16T22:39:54.546Z,14.40
2024-02-16T22:44:57.696Z,14.50
2024-02-16T22:50:01.169Z,14.50
2024-02-16T22:55:06.166Z,14.40
2024-02-16T23:00:24.210Z,14.30
2024-02-16T23:05:27.605Z,14.20
2024-02-16T23:10:34.719Z,14.20
2024-02-16T23:15:37.600Z,14.10
2024-02-16T23:20:41.268Z,14.20
2024-02-16T23:25:46.591Z,14.10
2024-02-16T23:30:49.613Z,14.10
2024-02-16T23:35:52.586Z,14.10
2024-02-16T23:40:58.379Z,14.10
2024-02-16T23:46:05.030Z,14.00
2024-02-16T23:51:08.423Z,14.00
2024-02-16T23:56:13.049Z,14.00
